This is the latest recevied weather packets stored in our database for station/object KC9DRE. If no packets are shown the sender has not sent any weather packets the latest 10 day(s).
| Time | Temp. | Humidity | Pressure | Rain* | Wind** | Luminosity | Snow |
|---|---|---|---|---|---|---|---|
| 1788114965 | 35° C | 43% | 1020 hPa | 0 mm | - | 782 W/m² | - |
| 1788114661 | 34.44° C | 46% | 1020.3 hPa | 0 mm | - | 802 W/m² | - |
| 1788114355 | 34.44° C | 48% | 1020.5 hPa | 0 mm | - | 786 W/m² | - |
| 1788114052 | 34.44° C | 46% | 1020.5 hPa | 0 mm | - | 805 W/m² | - |
| 1788113748 | 33.89° C | 48% | 1020.6 hPa | 0 mm | - | 822 W/m² | - |
| 1788113447 | 33.89° C | 51% | 1020.6 hPa | 0 mm | - | 813 W/m² | - |
| 1788113146 | 33.89° C | 48% | 1021 hPa | 0 mm | - | 880 W/m² | - |
| 1788112846 | 33.89° C | 49% | 1020.8 hPa | 0 mm | - | 225 W/m² | - |
| 1788112545 | 32.78° C | 55% | 1020.8 hPa | 0 mm | - | 839 W/m² | - |
| 1788112240 | 32.78° C | 52% | 1020.6 hPa | 0 mm | - | 223 W/m² | - |
| 1788111936 | 33.33° C | 54% | 1020.7 hPa | 0 mm | - | 880 W/m² | - |
| 1788111631 | 33.89° C | 49% | 1020.8 hPa | 0 mm | - | 181 W/m² | - |
| 1788111327 | 33.89° C | 48% | 1020.7 hPa | 0 mm | - | 733 W/m² | - |
| 1788111021 | 34.44° C | 50% | 1020.9 hPa | 0 mm | - | 839 W/m² | - |
| 1788110718 | 34.44° C | 49% | 1020.9 hPa | 0 mm | - | 820 W/m² | - |
| 1788110414 | 33.89° C | 49% | 1021.1 hPa | 0 mm | - | 805 W/m² | - |
| 1788110109 | 33.33° C | 53% | 1020.9 hPa | 0 mm | - | 803 W/m² | - |
| 1788109804 | 33.33° C | 51% | 1020.9 hPa | 0 mm | - | 782 W/m² | - |
| 1788109503 | 32.78° C | 53% | 1020.9 hPa | 0 mm | - | 784 W/m² | - |
| 1788109202 | 32.22° C | 54% | 1021.1 hPa | 0 mm | - | 784 W/m² | - |
| 1788108898 | 32.78° C | 52% | 1021 hPa | 0 mm | - | 653 W/m² | - |
| 1788108594 | 32.78° C | 54% | 1021.1 hPa | 0 mm | - | 814 W/m² | - |
| 1788108289 | 32.78° C | 53% | 1021.1 hPa | 0 mm | - | 815 W/m² | - |
| 1788107986 | 32.78° C | 52% | 1021.2 hPa | 0 mm | - | 719 W/m² | - |
| 1788107682 | 32.78° C | 55% | 1021.3 hPa | 0 mm | - | 779 W/m² | - |
* Rain latest hour (hover to see other rain measurements)
** Current wind speed in m/s (hover to see current wind gust speed)